Shamrock, Louisiana
Current Conditions -  °F | °C
As of 10:15 AM on Tuesday 21 Oct 2014 (Local Time) from KIER Reporting Station
Overcast Overcast  
Wind Chill: 70°   Ceiling: 4900
Heat Index: 70°   Visibility: 10mi
Dew Point: 58°   Wind: 0mph
Humidity: 66%   Direction: NA
Pressure: 30.12"   Gusts: NA
Location:  31.8112°N, 93.3051°W
Report Text: KIER 211515Z AUTO 00000KT 10SM OVC049 21/14 A3012 RMK AO2 T02100144
Loading
Personal Weather Stations






























Interactive Weather Map
Tropical Storm Tracking
New forecast layout! Learn more

10-Day Weather Forecast

Advertisements
Track Severe Weather on mobile